Time;durP1;ratioP1;P1;durP2;ratioP2;P2;SDS_P1;SDS_P2;PMS_P1;PMS_P2;Temp;Humidity;BMP_temperature;BMP_pressure;BME280_temperature;BME280_humidity;BME280_pressure;Samples;Min_cycle;Max_cycle;Signal;HPM_P1;HPM_P2
2021/01/10 00:00:04;;;;;;;;;;;;;;;22.66;42.42;101881.53;2068167;28;4014;-33
2021/01/10 00:01:04;;;;;;;;;;;;;;;22.68;42.36;101882.03;2068519;28;3968;-34
2021/01/10 00:02:04;;;;;;;;;;;;;;;22.66;42.44;101887.25;2067968;28;4576;-34
2021/01/10 00:03:04;;;;;;;;;;;;;;;22.67;42.53;101878.38;2068176;28;4027;-34
2021/01/10 00:04:04;;;;;;;;;;;;;;;22.73;42.42;101883.88;2069076;28;4006;-33
2021/01/10 00:05:04;;;;;;;;;;;;;;;22.75;42.39;101878.69;2068550;28;4038;-34
2021/01/10 00:06:04;;;;;;;;;;;;;;;22.83;42.47;101881.50;2068422;28;3959;-34
2021/01/10 00:07:05;;;;;;;;;;;;;;;22.78;42.58;101884.53;2067128;28;3979;-34
2021/01/10 00:08:05;;;;;;;;;;;;;;;22.78;42.38;101872.31;2069593;28;3819;-34
2021/01/10 00:09:05;;;;;;;;;;;;;;;22.78;42.57;101878.84;2069742;28;3846;-34
2021/01/10 00:10:05;;;;;;;;;;;;;;;22.82;42.46;101873.28;2069295;28;3780;-34
2021/01/10 00:11:05;;;;;;;;;;;;;;;22.83;42.38;101878.66;2069239;28;3875;-32
2021/01/10 00:12:05;;;;;;;;;;;;;;;22.89;42.54;101882.16;2068748;28;3812;-34
2021/01/10 00:13:05;;;;;;;;;;;;;;;22.85;42.64;101879.16;2067907;28;3804;-34
2021/01/10 00:14:23;;;;;;;;;;;;;;;22.84;42.70;101876.66;2069371;28;5833;-34
2021/01/10 00:15:53;;;;;;;;;;;;;;;22.54;42.87;101872.84;2053828;28;3996;-33
2021/01/10 00:16:53;;;;;;;;;;;;;;;22.36;43.48;101872.06;2071151;28;4696;-34
2021/01/10 00:17:53;;;;;;;;;;;;;;;22.49;43.32;101876.72;2068771;28;4051;-34
2021/01/10 00:18:53;;;;;;;;;;;;;;;22.64;42.78;101881.91;2068727;28;4173;-34
2021/01/10 00:19:53;;;;;;;;;;;;;;;22.66;42.98;101884.38;2069199;28;4591;-34
2021/01/10 00:20:53;;;;;;;;;;;;;;;22.66;42.91;101882.41;2069028;28;4031;-34
2021/01/10 00:21:53;;;;;;;;;;;;;;;22.69;42.76;101889.44;2068822;28;4040;-34
2021/01/10 00:22:54;;;;;;;;;;;;;;;22.70;42.89;101881.72;2069440;28;4638;-34
2021/01/10 00:23:54;;;;;;;;;;;;;;;22.70;43.00;101882.56;2069615;28;3879;-34
2021/01/10 00:24:54;;;;;;;;;;;;;;;22.77;42.92;101887.72;2069211;28;4048;-34
2021/01/10 00:25:54;;;;;;;;;;;;;;;22.75;42.95;101888.09;2068656;28;4785;-34
2021/01/10 00:26:54;;;;;;;;;;;;;;;22.79;42.89;101888.22;2069078;28;4041;-34
2021/01/10 00:27:54;;;;;;;;;;;;;;;22.80;43.13;101889.91;2067445;28;4022;-34
2021/01/10 00:28:54;;;;;;;;;;;;;;;22.81;43.00;101889.56;2069106;28;4628;-34
2021/01/10 00:29:54;;;;;;;;;;;;;;;22.81;42.98;101897.31;2068385;28;3919;-34
2021/01/10 00:30:54;;;;;;;;;;;;;;;22.83;42.91;101892.94;2067969;28;3860;-34
2021/01/10 00:31:55;;;;;;;;;;;;;;;22.85;42.95;101889.72;2068968;28;4106;-33
2021/01/10 00:32:55;;;;;;;;;;;;;;;22.84;43.05;101899.47;2068511;28;4014;-34
2021/01/10 00:33:55;;;;;;;;;;;;;;;22.87;43.01;101899.63;2069086;28;4033;-34
2021/01/10 00:34:55;;;;;;;;;;;;;;;22.91;42.90;101894.09;2068878;28;4037;-34
2021/01/10 00:35:55;;;;;;;;;;;;;;;22.91;43.11;101899.81;2068034;28;4041;-34
2021/01/10 00:36:55;;;;;;;;;;;;;;;22.85;43.40;101895.44;2067869;28;4106;-34
2021/01/10 00:37:55;;;;;;;;;;;;;;;22.85;43.35;101902.00;2069093;28;4225;-34
2021/01/10 00:38:55;;;;;;;;;;;;;;;22.84;43.50;101899.47;2068478;28;4040;-32
2021/01/10 00:39:55;;;;;;;;;;;;;;;22.81;43.56;101898.13;2068954;28;4034;-34
2021/01/10 00:40:55;;;;;;;;;;;;;;;22.79;43.69;101899.66;2068919;28;4654;-34
2021/01/10 00:41:55;;;;;;;;;;;;;;;22.79;43.65;101893.94;2068849;28;3822;-33
2021/01/10 00:42:56;;;;;;;;;;;;;;;22.84;43.45;101896.63;2068604;28;3880;-34
2021/01/10 00:43:56;;;;;;;;;;;;;;;22.82;43.54;101901.81;2069428;28;3851;-34
2021/01/10 00:44:56;;;;;;;;;;;;;;;22.83;43.40;101901.50;2069359;28;4417;-34
2021/01/10 00:45:56;;;;;;;;;;;;;;;22.80;43.63;101895.59;2069139;28;3847;-34
2021/01/10 00:46:56;;;;;;;;;;;;;;;22.80;43.59;101901.31;2069513;28;4516;-34
2021/01/10 00:47:56;;;;;;;;;;;;;;;22.77;43.51;101902.84;2069167;28;4003;-34
2021/01/10 00:48:56;;;;;;;;;;;;;;;22.77;43.56;101900.00;2067871;28;4038;-34
2021/01/10 00:49:56;;;;;;;;;;;;;;;22.76;43.53;101903.19;2068078;28;4620;-34
2021/01/10 00:50:56;;;;;;;;;;;;;;;22.75;43.51;101895.81;2068750;28;4813;-34
2021/01/10 00:51:56;;;;;;;;;;;;;;;22.76;43.61;101904.00;2068846;28;4040;-34
2021/01/10 00:52:56;;;;;;;;;;;;;;;22.76;43.49;101900.31;2068027;28;4009;-33
2021/01/10 00:53:57;;;;;;;;;;;;;;;22.76;43.35;101903.19;2068388;28;4047;-34
2021/01/10 00:54:57;;;;;;;;;;;;;;;22.77;43.27;101910.56;2068812;28;4018;-33
2021/01/10 00:55:57;;;;;;;;;;;;;;;22.76;43.38;101903.19;2069266;28;4600;-34
2021/01/10 00:56:57;;;;;;;;;;;;;;;22.75;43.49;101901.50;2069754;28;4013;-34
2021/01/10 00:57:57;;;;;;;;;;;;;;;22.76;43.42;101906.03;2070698;28;4046;-33
2021/01/10 00:58:57;;;;;;;;;;;;;;;22.77;43.42;101905.72;2070520;28;4055;-33
2021/01/10 00:59:57;;;;;;;;;;;;;;;22.77;43.60;101905.72;2070660;28;4015;-34
2021/01/10 01:00:57;;;;;;;;;;;;;;;22.78;43.48;101906.53;2070323;28;4068;-34
2021/01/10 01:01:57;;;;;;;;;;;;;;;22.81;43.55;101915.25;2069621;28;4025;-33
2021/01/10 01:02:57;;;;;;;;;;;;;;;22.81;43.61;101908.72;2069156;28;4017;-34
2021/01/10 01:03:57;;;;;;;;;;;;;;;22.80;43.38;101910.72;2070966;28;4138;-34
2021/01/10 01:04:57;;;;;;;;;;;;;;;22.81;43.37;101917.28;2070330;28;4591;-34
2021/01/10 01:05:57;;;;;;;;;;;;;;;22.80;43.42;101918.44;2070227;28;4026;-34
2021/01/10 01:06:58;;;;;;;;;;;;;;;22.76;43.63;101908.88;2069369;28;4079;-34
2021/01/10 01:07:58;;;;;;;;;;;;;;;22.78;43.45;101913.09;2070059;28;4588;-34
2021/01/10 01:08:58;;;;;;;;;;;;;;;22.80;43.62;101910.72;2071455;28;3990;-33
2021/01/10 01:09:58;;;;;;;;;;;;;;;22.81;43.75;101918.09;2070038;28;4929;-34
2021/01/10 01:10:58;;;;;;;;;;;;;;;22.81;43.83;101920.13;2070683;28;4652;-33
2021/01/10 01:11:59;;;;;;;;;;;;;;;22.80;43.63;101912.72;2069553;28;3924;-33
2021/01/10 01:12:59;;;;;;;;;;;;;;;22.79;43.76;101911.91;2070158;28;4018;-34
2021/01/10 01:14:00;;;;;;;;;;;;;;;22.81;43.60;101911.56;2070803;28;4598;-34
2021/01/10 01:15:00;;;;;;;;;;;;;;;22.78;43.82;101913.09;2070110;28;3825;-34
2021/01/10 01:16:00;;;;;;;;;;;;;;;22.80;43.70;101918.44;2070392;28;3894;-33
2021/01/10 01:17:00;;;;;;;;;;;;;;;22.80;43.81;101915.56;2070889;28;4860;-33
2021/01/10 01:18:00;;;;;;;;;;;;;;;22.80;43.61;101915.56;2069648;28;4167;-35
2021/01/10 01:19:00;;;;;;;;;;;;;;;22.79;43.73;101919.63;2070958;28;3997;-34
2021/01/10 01:20:00;;;;;;;;;;;;;;;22.78;43.66;101915.09;2070846;28;4041;-34
2021/01/10 01:21:00;;;;;;;;;;;;;;;22.79;43.72;101920.44;2070019;28;3987;-34
2021/01/10 01:22:00;;;;;;;;;;;;;;;22.79;43.73;101919.63;2069113;28;3854;-34
2021/01/10 01:23:00;;;;;;;;;;;;;;;22.81;43.81;101925.84;2069356;28;4239;-33
2021/01/10 01:24:01;;;;;;;;;;;;;;;22.81;43.85;101922.97;2070926;28;3977;-34
2021/01/10 01:25:02;;;;;;;;;;;;;;;22.83;43.63;101929.19;2070800;28;4005;-34
2021/01/10 01:26:02;;;;;;;;;;;;;;;22.84;43.70;101925.97;2070804;28;4637;-33
2021/01/10 01:27:02;;;;;;;;;;;;;;;22.84;43.76;101925.97;2070070;28;4892;-34
2021/01/10 01:28:02;;;;;;;;;;;;;;;22.81;43.64;101929.53;2070696;28;3983;-34
2021/01/10 01:29:03;;;;;;;;;;;;;;;22.82;43.71;101927.50;2070294;28;3836;-34
2021/01/10 01:30:03;;;;;;;;;;;;;;;22.85;43.87;101929.66;2070236;28;3997;-34
2021/01/10 01:31:03;;;;;;;;;;;;;;;22.86;43.79;101925.66;2070387;28;3957;-34
2021/01/10 01:32:03;;;;;;;;;;;;;;;22.84;43.87;101933.72;2070918;28;4112;-34
2021/01/10 01:33:03;;;;;;;;;;;;;;;22.84;43.82;101934.53;2069199;28;3876;-34
2021/01/10 01:34:03;;;;;;;;;;;;;;;22.83;43.78;101943.47;2070727;28;4120;-34
2021/01/10 01:35:03;;;;;;;;;;;;;;;22.81;43.81;101940.09;2071149;28;4602;-34
2021/01/10 01:36:03;;;;;;;;;;;;;;;22.83;43.98;101930.03;2070360;28;4008;-34
2021/01/10 01:37:03;;;;;;;;;;;;;;;22.84;43.94;101933.72;2070421;28;4017;-34
2021/01/10 01:38:04;;;;;;;;;;;;;;;22.83;43.94;101932.03;2071145;28;4045;-33
2021/01/10 01:39:04;;;;;;;;;;;;;;;22.81;44.05;101935.22;2068150;28;3808;-34
2021/01/10 01:40:04;;;;;;;;;;;;;;;22.81;43.94;101945.81;2070593;28;3991;-35
2021/01/10 01:41:06;;;;;;;;;;;;;;;22.79;43.97;101940.41;2069838;28;4160;-34
2021/01/10 01:42:06;;;;;;;;;;;;;;;22.79;44.19;101933.88;2069480;28;3827;-34
2021/01/10 01:43:06;;;;;;;;;;;;;;;22.78;44.16;101946.50;2069194;28;3895;-34
2021/01/10 01:44:06;;;;;;;;;;;;;;;22.77;44.24;101950.50;2069127;28;4097;-33
2021/01/10 01:45:06;;;;;;;;;;;;;;;22.78;44.40;101946.50;2067556;28;3828;-34
2021/01/10 01:46:06;;;;;;;;;;;;;;;22.78;44.11;101947.31;2069546;28;3904;-34
2021/01/10 01:47:06;;;;;;;;;;;;;;;22.82;44.29;101944.63;2067878;28;4607;-34
2021/01/10 01:48:07;;;;;;;;;;;;;;;22.83;44.16;101937.75;2071127;28;4015;-33
2021/01/10 01:49:07;;;;;;;;;;;;;;;22.85;44.05;101941.09;2070229;28;3829;-34
2021/01/10 01:50:07;;;;;;;;;;;;;;;22.83;44.15;101938.59;2070597;28;4043;-34
2021/01/10 01:51:07;;;;;;;;;;;;;;;22.87;44.11;101942.41;2069767;28;3989;-33
2021/01/10 01:52:07;;;;;;;;;;;;;;;22.90;44.14;101938.06;2071231;28;3832;-34
2021/01/10 01:53:07;;;;;;;;;;;;;;;22.94;44.27;101943.91;2067960;28;4670;-33
2021/01/10 01:54:07;;;;;;;;;;;;;;;22.94;44.17;101939.06;2070174;28;3902;-34
2021/01/10 01:55:07;;;;;;;;;;;;;;;22.92;44.22;101935.72;2068670;28;3853;-33
2021/01/10 01:56:08;;;;;;;;;;;;;;;22.95;44.67;101940.72;2068284;28;3878;-34
2021/01/10 01:57:08;;;;;;;;;;;;;;;22.97;44.27;101946.16;2069852;28;3880;-33
2021/01/10 01:58:08;;;;;;;;;;;;;;;22.90;44.36;101938.88;2068911;28;3892;-34
2021/01/10 01:59:08;;;;;;;;;;;;;;;22.90;44.41;101938.88;2071416;28;3883;-34
2021/01/10 02:00:09;;;;;;;;;;;;;;;22.87;44.49;101950.16;2070008;28;3957;-34
2021/01/10 02:01:09;;;;;;;;;;;;;;;22.86;44.54;101939.94;2069374;28;3783;-34
2021/01/10 02:02:09;;;;;;;;;;;;;;;22.87;44.65;101936.72;2067960;28;4077;-34
2021/01/10 02:03:09;;;;;;;;;;;;;;;22.86;44.67;101937.06;2069298;28;3771;-34
2021/01/10 02:04:09;;;;;;;;;;;;;;;22.83;44.66;101944.28;2069165;28;3975;-34
2021/01/10 02:05:09;;;;;;;;;;;;;;;22.86;44.61;101939.94;2069217;28;4636;-33
2021/01/10 02:06:09;;;;;;;;;;;;;;;22.84;44.60;101945.13;2068470;28;3807;-34
2021/01/10 02:07:09;;;;;;;;;;;;;;;22.83;44.84;101946.31;2068680;28;3809;-34
2021/01/10 02:08:10;;;;;;;;;;;;;;;22.83;44.77;101949.16;2069929;28;4473;-34
2021/01/10 02:09:10;;;;;;;;;;;;;;;22.82;44.85;101945.44;2070511;28;3929;-33
2021/01/10 02:10:10;;;;;;;;;;;;;;;22.80;44.83;101944.13;2069814;28;4669;-33
2021/01/10 02:11:10;;;;;;;;;;;;;;;22.79;44.95;101946.13;2069957;28;3967;-32
2021/01/10 02:12:10;;;;;;;;;;;;;;;22.81;44.80;101938.09;2069999;28;4056;-33
2021/01/10 02:13:10;;;;;;;;;;;;;;;22.79;44.84;101943.28;2070325;28;4677;-33
2021/01/10 02:14:10;;;;;;;;;;;;;;;22.78;44.88;101941.63;2068911;28;4113;-33
2021/01/10 02:15:10;;;;;;;;;;;;;;;22.84;44.86;101943.09;2070697;28;3993;-33
2021/01/10 02:16:11;;;;;;;;;;;;;;;22.89;44.84;101953.50;2071061;28;4705;-33
2021/01/10 02:17:11;;;;;;;;;;;;;;;22.89;45.12;101942.94;2070423;28;3871;-34
2021/01/10 02:18:11;;;;;;;;;;;;;;;22.89;45.18;101951.50;2068094;28;4184;-34
2021/01/10 02:19:11;;;;;;;;;;;;;;;22.91;45.39;101951.16;2069341;28;4045;-34
2021/01/10 02:20:11;;;;;;;;;;;;;;;22.90;45.41;101955.19;2070449;28;4172;-33
2021/01/10 02:21:12;;;;;;;;;;;;;;;22.91;45.27;101945.47;2068984;28;3852;-33
2021/01/10 02:22:12;;;;;;;;;;;;;;;22.89;45.15;101954.34;2068918;28;4755;-33
2021/01/10 02:23:12;;;;;;;;;;;;;;;22.91;45.25;101948.31;2068219;28;3921;-34
2021/01/10 02:24:12;;;;;;;;;;;;;;;22.87;45.27;101939.56;2070352;28;4081;-33
2021/01/10 02:25:12;;;;;;;;;;;;;;;22.90;45.16;101940.91;2068366;28;4240;-33
2021/01/10 02:26:12;;;;;;;;;;;;;;;22.93;45.06;101940.22;2069750;28;4053;-33
2021/01/10 02:27:12;;;;;;;;;;;;;;;22.93;44.94;101943.06;2066777;28;3931;-33
2021/01/10 02:28:12;;;;;;;;;;;;;;;22.93;45.05;101945.94;2067655;28;4614;-34
2021/01/10 02:29:12;;;;;;;;;;;;;;;22.94;45.11;101944.78;2068447;28;4060;-34
2021/01/10 02:30:12;;;;;;;;;;;;;;;22.94;44.99;101946.78;2068574;28;3903;-34
2021/01/10 02:31:13;;;;;;;;;;;;;;;22.94;45.03;101949.63;2067630;28;4653;-34
2021/01/10 02:32:13;;;;;;;;;;;;;;;22.93;45.09;101954.50;2070255;28;4189;-33
2021/01/10 02:33:13;;;;;;;;;;;;;;;22.93;45.35;101948.78;2069292;28;3883;-33
2021/01/10 02:34:13;;;;;;;;;;;;;;;22.90;44.94;101956.00;2070750;28;4687;-33
2021/01/10 02:35:13;;;;;;;;;;;;;;;22.88;45.16;101954.66;2068066;28;3934;-34
2021/01/10 02:36:13;;;;;;;;;;;;;;;22.84;44.95;101945.97;2069777;28;3903;-34
2021/01/10 02:37:13;;;;;;;;;;;;;;;22.85;45.07;101961.06;2068685;28;5373;-34
2021/01/10 02:38:13;;;;;;;;;;;;;;;22.85;45.11;101955.34;2070139;28;4109;-34
2021/01/10 02:39:13;;;;;;;;;;;;;;;22.86;45.31;101948.50;2069525;28;4071;-33
2021/01/10 02:40:13;;;;;;;;;;;;;;;22.89;45.33;101953.50;2069128;28;4851;-34
2021/01/10 02:41:13;;;;;;;;;;;;;;;22.86;45.20;101957.03;2068966;28;4097;-33
2021/01/10 02:42:17;;;;;;;;;;;;;;;22.84;45.29;101951.66;2070514;28;3917;-33
2021/01/10 02:43:17;;;;;;;;;;;;;;;22.89;45.29;101954.34;2069928;28;4621;-34
2021/01/10 02:44:17;;;;;;;;;;;;;;;22.84;45.23;101951.66;2070514;28;4052;-34
2021/01/10 02:45:17;;;;;;;;;;;;;;;22.82;45.12;101953.19;2069912;28;4075;-34
2021/01/10 02:46:17;;;;;;;;;;;;;;;22.83;45.10;101949.16;2070114;28;4630;-34
2021/01/10 02:47:17;;;;;;;;;;;;;;;22.82;45.12;101950.31;2067820;28;4069;-34
2021/01/10 02:48:17;;;;;;;;;;;;;;;22.83;45.07;101952.84;2069281;28;4200;-33
2021/01/10 02:49:18;;;;;;;;;;;;;;;22.85;45.15;101952.50;2069965;28;4054;-33
2021/01/10 02:50:18;;;;;;;;;;;;;;;22.89;45.04;101947.81;2070035;28;3875;-34
2021/01/10 02:51:18;;;;;;;;;;;;;;;22.94;45.58;101947.63;2068664;28;4042;-34
2021/01/10 02:52:18;;;;;;;;;;;;;;;22.96;45.34;101945.28;2069673;28;4589;-33
2021/01/10 02:53:18;;;;;;;;;;;;;;;22.93;45.44;101943.06;2069347;28;4074;-33
2021/01/10 02:54:18;;;;;;;;;;;;;;;22.95;45.35;101948.47;2070071;28;4040;-33
2021/01/10 02:55:19;;;;;;;;;;;;;;;22.92;45.32;101952.84;2071416;28;3865;-33
2021/01/10 02:56:19;;;;;;;;;;;;;;;22.95;45.24;101948.47;2068882;28;4231;-34
2021/01/10 02:57:19;;;;;;;;;;;;;;;22.96;45.83;101945.28;2069875;28;4140;-34
2021/01/10 02:58:19;;;;;;;;;;;;;;;22.97;46.03;101944.13;2068714;28;4645;-34
2021/01/10 02:59:19;;;;;;;;;;;;;;;22.95;45.69;101942.75;2070598;28;4036;-34
2021/01/10 03:00:19;;;;;;;;;;;;;;;22.94;45.82;101949.63;2069221;28;4108;-34
2021/01/10 03:01:19;;;;;;;;;;;;;;;22.92;45.91;101947.13;2066399;28;4076;-34
2021/01/10 03:02:20;;;;;;;;;;;;;;;22.95;46.05;101951.31;2069759;28;4079;-34
2021/01/10 03:03:20;;;;;;;;;;;;;;;22.92;46.18;101949.97;2069076;28;4064;-33
2021/01/10 03:04:20;;;;;;;;;;;;;;;22.90;46.27;101950.31;2069919;28;4660;-33
2021/01/10 03:05:20;;;;;;;;;;;;;;;22.90;45.80;101941.75;2069318;28;4067;-34
2021/01/10 03:06:21;;;;;;;;;;;;;;;22.90;45.83;101952.31;2069371;28;3875;-34
2021/01/10 03:07:21;;;;;;;;;;;;;;;22.90;45.76;101955.19;2069702;28;4295;-34
2021/01/10 03:08:21;;;;;;;;;;;;;;;22.88;45.60;101954.66;2069077;28;3914;-33
2021/01/10 03:09:21;;;;;;;;;;;;;;;22.83;45.68;101947.16;2069510;28;4073;-34
2021/01/10 03:10:21;;;;;;;;;;;;;;;22.85;45.84;101955.34;2070017;28;4718;-34
2021/01/10 03:11:21;;;;;;;;;;;;;;;22.85;45.68;101952.50;2068677;28;3932;-34
2021/01/10 03:12:27;;;;;;;;;;;;;;;22.84;45.65;101950.84;2070125;28;4065;-34
2021/01/10 03:13:27;;;;;;;;;;;;;;;22.82;45.53;101951.16;2069854;28;4192;-33
2021/01/10 03:14:28;;;;;;;;;;;;;;;22.80;45.69;101955.53;2069942;28;4072;-34
2021/01/10 03:15:28;;;;;;;;;;;;;;;22.77;45.71;101957.06;2071283;28;3888;-34
2021/01/10 03:16:28;;;;;;;;;;;;;;;22.76;45.77;101958.22;2069333;28;4101;-33
2021/01/10 03:17:28;;;;;;;;;;;;;;;22.78;45.74;101957.91;2069248;28;4143;-34
2021/01/10 03:18:28;;;;;;;;;;;;;;;22.82;45.65;101954.00;2068094;28;4063;-34
2021/01/10 03:19:28;;;;;;;;;;;;;;;22.83;45.49;101958.56;2068491;28;4133;-33
2021/01/10 03:20:28;;;;;;;;;;;;;;;22.83;45.65;101964.28;2069571;28;4035;-33
2021/01/10 03:21:28;;;;;;;;;;;;;;;22.81;45.54;101957.22;2068694;28;4167;-34
2021/01/10 03:22:28;;;;;;;;;;;;;;;22.80;45.50;101962.09;2069717;28;4464;-34
2021/01/10 03:23:28;;;;;;;;;;;;;;;22.82;45.60;101956.03;2068086;28;4028;-34
2021/01/10 03:24:28;;;;;;;;;;;;;;;22.83;45.70;101969.16;2069966;28;4066;-34
2021/01/10 03:25:28;;;;;;;;;;;;;;;22.82;45.53;101958.88;2069970;28;4604;-34
2021/01/10 03:26:29;;;;;;;;;;;;;;;21.29;38.87;101965.28;2069841;28;4088;-34
2021/01/10 03:27:29;;;;;;;;;;;;;;;18.95;41.57;101963.78;2069312;28;4021;-33
2021/01/10 03:28:29;;;;;;;;;;;;;;;17.66;44.38;101972.47;2069533;28;4239;-32
2021/01/10 03:29:29;;;;;;;;;;;;;;;16.98;44.17;101967.00;2069419;28;4083;-33
2021/01/10 03:30:29;;;;;;;;;;;;;;;16.75;43.43;101974.25;2068463;28;4145;-33
2021/01/10 03:31:30;;;;;;;;;;;;;;;16.81;41.06;101970.28;2068564;28;4628;-33
2021/01/10 03:32:30;;;;;;;;;;;;;;;16.30;43.21;101971.50;2068383;28;3916;-33
2021/01/10 03:33:30;;;;;;;;;;;;;;;16.09;45.27;101972.75;2069416;28;4041;-33
2021/01/10 03:34:30;;;;;;;;;;;;;;;15.96;44.02;101966.63;2069388;28;4072;-33
2021/01/10 03:35:30;;;;;;;;;;;;;;;16.07;44.08;101972.19;2070557;28;3871;-33
2021/01/10 03:36:30;;;;;;;;;;;;;;;15.99;43.29;101974.53;2068501;28;3901;-33
2021/01/10 03:37:30;;;;;;;;;;;;;;;15.84;43.82;101974.59;2069407;28;4625;-34
2021/01/10 03:38:30;;;;;;;;;;;;;;;15.72;44.24;101977.75;2068896;28;4076;-33
2021/01/10 03:39:30;;;;;;;;;;;;;;;15.79;42.23;101971.78;2069904;28;3868;-33
2021/01/10 03:40:31;;;;;;;;;;;;;;;15.78;40.95;101985.06;2068852;28;4603;-33
2021/01/10 03:41:31;;;;;;;;;;;;;;;15.91;40.97;101974.28;2068615;28;3878;-34
2021/01/10 03:42:31;;;;;;;;;;;;;;;15.72;41.40;101980.56;2069335;28;3856;-33
2021/01/10 03:43:31;;;;;;;;;;;;;;;15.39;42.28;101975.59;2068930;28;4101;-32
2021/01/10 03:44:31;;;;;;;;;;;;;;;15.56;42.56;101979.75;2069182;28;3991;-33
2021/01/10 03:45:31;;;;;;;;;;;;;;;15.52;41.90;101978.66;2069857;28;3871;-33
2021/01/10 03:46:31;;;;;;;;;;;;;;;15.62;42.38;101989.03;2070559;28;3928;-33
2021/01/10 03:47:31;;;;;;;;;;;;;;;15.58;41.27;101982.28;2069566;28;4044;-34
2021/01/10 03:48:31;;;;;;;;;;;;;;;15.62;41.65;101982.56;2068153;28;3949;-33
2021/01/10 03:49:31;;;;;;;;;;;;;;;15.34;41.44;101979.25;2068532;28;4279;-34
2021/01/10 03:50:31;;;;;;;;;;;;;;;15.30;42.09;101980.94;2069948;28;4063;-33
2021/01/10 03:51:31;;;;;;;;;;;;;;;15.27;40.90;101981.53;2068357;28;4035;-33
2021/01/10 03:52:32;;;;;;;;;;;;;;;14.98;41.81;101981.31;2069835;28;4699;-33
2021/01/10 03:53:32;;;;;;;;;;;;;;;15.22;40.87;101975.91;2067483;28;3898;-33
2021/01/10 03:54:32;;;;;;;;;;;;;;;15.15;40.51;101979.84;2068201;28;4091;-33
2021/01/10 03:55:32;;;;;;;;;;;;;;;14.88;41.25;101979.31;2069121;28;3896;-33
2021/01/10 03:56:32;;;;;;;;;;;;;;;14.83;41.16;101980.19;2069402;28;4071;-32
2021/01/10 03:57:32;;;;;;;;;;;;;;;14.88;41.59;101979.31;2069554;28;3871;-33
2021/01/10 03:58:32;;;;;;;;;;;;;;;14.82;41.27;101975.66;2068371;28;4038;-33
2021/01/10 03:59:32;;;;;;;;;;;;;;;14.68;41.07;101974.56;2068145;28;4049;-33
2021/01/10 04:00:32;;;;;;;;;;;;;;;14.67;40.80;101973.72;2069574;28;4022;-33
2021/01/10 04:01:32;;;;;;;;;;;;;;;14.62;41.63;101981.31;2068780;28;3863;-33
2021/01/10 04:02:32;;;;;;;;;;;;;;;14.82;42.19;101983.28;2069509;28;3888;-33
2021/01/10 04:03:32;;;;;;;;;;;;;;;14.74;41.29;101983.84;2069652;28;4071;-33
2021/01/10 04:04:32;;;;;;;;;;;;;;;14.84;40.96;101973.44;2069623;28;4773;-33
2021/01/10 04:05:32;;;;;;;;;;;;;;;14.68;41.22;101968.91;2070231;28;4188;-33
2021/01/10 04:06:33;;;;;;;;;;;;;;;14.59;40.94;101971.47;2069005;28;3882;-33
2021/01/10 04:07:33;;;;;;;;;;;;;;;14.53;41.71;101978.22;2076897;28;4441;-32
2021/01/10 04:08:33;;;;;;;;;;;;;;;14.37;41.59;101982.13;2074539;28;4086;-33
2021/01/10 04:09:33;;;;;;;;;;;;;;;14.50;41.98;101978.75;2069474;28;3907;-33
2021/01/10 04:10:33;;;;;;;;;;;;;;;14.48;41.51;101975.38;2069803;28;4591;-33
2021/01/10 04:11:33;;;;;;;;;;;;;;;14.45;41.59;101976.78;2067893;28;4058;-33
2021/01/10 04:12:33;;;;;;;;;;;;;;;14.49;40.96;101972.25;2069629;28;4094;-33
2021/01/10 04:13:33;;;;;;;;;;;;;;;14.43;41.26;101978.16;2069096;28;3874;-33
2021/01/10 04:14:33;;;;;;;;;;;;;;;14.32;41.58;101976.47;2084933;28;4194;-32
2021/01/10 04:15:33;;;;;;;;;;;;;;;14.42;41.10;101970.88;2084563;28;4241;-33
2021/01/10 04:16:34;;;;;;;;;;;;;;;14.51;40.93;101973.97;2069358;28;4474;-33
2021/01/10 04:17:34;;;;;;;;;;;;;;;14.35;41.35;101968.31;2068665;28;3912;-33
2021/01/10 04:18:34;;;;;;;;;;;;;;;14.43;40.70;101967.75;2068250;28;4150;-33
2021/01/10 04:19:34;;;;;;;;;;;;;;;14.40;41.42;101962.69;2067844;28;4010;-33
2021/01/10 04:20:34;;;;;;;;;;;;;;;14.17;41.13;101975.31;2069847;28;4096;-33
2021/01/10 04:21:35;;;;;;;;;;;;;;;14.37;41.22;101968.03;2068661;28;3844;-33
2021/01/10 04:22:35;;;;;;;;;;;;;;;14.38;40.87;101964.94;2069671;28;4732;-33
2021/01/10 04:23:35;;;;;;;;;;;;;;;14.19;41.48;101970.25;2069205;28;3859;-33
2021/01/10 04:24:35;;;;;;;;;;;;;;;16.19;43.67;101970.72;2069081;28;4039;-33
2021/01/10 04:25:35;;;;;;;;;;;;;;;17.69;42.56;101956.88;2069505;28;3889;-33
2021/01/10 04:26:35;;;;;;;;;;;;;;;18.67;40.80;101960.81;2069790;28;4076;-34
2021/01/10 04:27:35;;;;;;;;;;;;;;;19.30;39.54;101955.75;2069467;28;3884;-33
2021/01/10 04:28:35;;;;;;;;;;;;;;;19.73;39.07;101955.47;2069548;28;4441;-33
2021/01/10 04:29:35;;;;;;;;;;;;;;;20.02;38.25;101950.28;2068514;28;4085;-33
2021/01/10 04:30:35;;;;;;;;;;;;;;;20.22;38.20;101953.81;2067858;28;4072;-34
2021/01/10 04:31:35;;;;;;;;;;;;;;;20.44;37.64;101955.81;2069306;28;3845;-32
2021/01/10 04:32:35;;;;;;;;;;;;;;;20.51;37.45;101947.69;2071310;28;4062;-33
2021/01/10 04:33:35;;;;;;;;;;;;;;;20.65;37.54;101953.34;2070977;28;3878;-33
2021/01/10 04:34:36;;;;;;;;;;;;;;;20.73;37.35;101952.59;2071025;28;3897;-33
2021/01/10 04:35:36;;;;;;;;;;;;;;;20.77;37.51;101949.94;2070185;28;4076;-33
2021/01/10 04:36:36;;;;;;;;;;;;;;;20.85;37.17;101949.16;2072224;28;3915;-34
2021/01/10 04:37:36;;;;;;;;;;;;;;;20.95;37.14;101942.31;2070989;28;3879;-33
2021/01/10 04:38:36;;;;;;;;;;;;;;;20.99;37.33;101949.91;2069708;28;3911;-33
2021/01/10 04:39:36;;;;;;;;;;;;;;;21.06;37.08;101941.75;2070738;28;4030;-34
2021/01/10 04:40:36;;;;;;;;;;;;;;;21.11;37.23;101952.97;2071318;28;4089;-34
2021/01/10 04:41:36;;;;;;;;;;;;;;;21.09;37.30;101946.78;2069385;28;4049;-33
2021/01/10 04:42:36;;;;;;;;;;;;;;;21.15;37.14;101947.47;2070685;28;4099;-34
2021/01/10 04:43:36;;;;;;;;;;;;;;;21.23;37.24;101943.00;2071196;28;4050;-34
2021/01/10 04:44:37;;;;;;;;;;;;;;;21.22;37.56;101941.31;2069398;28;4080;-33
2021/01/10 04:45:37;;;;;;;;;;;;;;;21.27;37.45;101944.84;2070338;28;4039;-34
2021/01/10 04:46:37;;;;;;;;;;;;;;;21.28;37.60;101946.53;2071783;28;4056;-33
2021/01/10 04:47:37;;;;;;;;;;;;;;;21.32;37.51;101941.03;2070615;28;4093;-34
2021/01/10 04:48:37;;;;;;;;;;;;;;;21.38;37.66;101941.75;2070592;28;3880;-33
2021/01/10 04:49:37;;;;;;;;;;;;;;;21.42;37.42;101939.91;2071115;28;4756;-33
2021/01/10 04:50:37;;;;;;;;;;;;;;;21.47;37.49;101943.44;2070003;28;4040;-33
2021/01/10 04:51:37;;;;;;;;;;;;;;;21.50;37.72;101941.94;2070516;28;4102;-34
2021/01/10 04:52:37;;;;;;;;;;;;;;;21.51;37.81;101941.63;2070812;28;4646;-34
2021/01/10 04:53:37;;;;;;;;;;;;;;;21.52;37.97;101936.78;2070077;28;3880;-34
2021/01/10 04:54:37;;;;;;;;;;;;;;;21.51;38.04;101946.50;2070299;28;4060;-34
2021/01/10 04:55:38;;;;;;;;;;;;;;;21.55;38.15;101953.19;2070575;28;4908;-33
2021/01/10 04:56:38;;;;;;;;;;;;;;;21.61;37.94;101951.88;2071152;28;4138;-34
2021/01/10 04:57:38;;;;;;;;;;;;;;;21.63;38.12;101945.84;2071397;28;3836;-34
2021/01/10 04:58:38;;;;;;;;;;;;;;;21.62;38.25;101949.88;2069929;28;3908;-34
2021/01/10 04:59:39;;;;;;;;;;;;;;;21.66;38.13;101946.03;2070965;28;3881;-34
2021/01/10 05:00:39;;;;;;;;;;;;;;;21.68;38.38;101948.56;2070323;28;4067;-34
2021/01/10 05:01:39;;;;;;;;;;;;;;;21.70;38.20;101946.22;2070007;28;4561;-34
2021/01/10 05:02:39;;;;;;;;;;;;;;;21.70;38.25;101941.38;2069483;28;4226;-33
2021/01/10 05:03:39;;;;;;;;;;;;;;;21.71;38.52;101940.19;2070775;28;4064;-33
2021/01/10 05:04:39;;;;;;;;;;;;;;;21.74;38.34;101939.50;2070951;28;4206;-33
2021/01/10 05:05:39;;;;;;;;;;;;;;;21.73;38.63;101951.25;2071227;28;4919;-34
2021/01/10 05:06:39;;;;;;;;;;;;;;;21.76;38.55;101947.75;2070626;28;4127;-32
2021/01/10 05:07:39;;;;;;;;;;;;;;;21.77;38.60;101953.09;2069887;28;4650;-33
2021/01/10 05:08:39;;;;;;;;;;;;;;;21.79;38.55;101947.91;2069414;28;3851;-33
2021/01/10 05:09:39;;;;;;;;;;;;;;;21.79;38.60;101949.94;2070732;28;4062;-33
2021/01/10 05:10:40;;;;;;;;;;;;;;;21.80;38.77;101952.44;2071018;28;4629;-33
2021/01/10 05:11:40;;;;;;;;;;;;;;;21.81;38.70;101950.44;2070145;28;4027;-34
2021/01/10 05:12:40;;;;;;;;;;;;;;;21.85;38.82;101947.75;2070423;28;3895;-33
2021/01/10 05:13:40;;;;;;;;;;;;;;;21.82;38.81;101954.97;2070854;28;4487;-33